createdAt,value
2022-12-27T00:00:37.094Z,3.60
2022-12-27T00:03:04.012Z,3.70
2022-12-27T00:05:31.039Z,3.80
2022-12-27T00:07:57.794Z,3.80
2022-12-27T00:10:24.485Z,3.80
2022-12-27T00:12:51.253Z,3.90
2022-12-27T00:15:17.978Z,3.90
2022-12-27T00:17:44.786Z,3.90
2022-12-27T00:20:12.167Z,4.00
2022-12-27T00:22:40.015Z,4.00
2022-12-27T00:25:07.193Z,4.10
2022-12-27T00:27:33.945Z,4.20
2022-12-27T00:30:00.734Z,4.20
2022-12-27T00:32:27.599Z,4.30
2022-12-27T00:34:54.425Z,4.40
2022-12-27T00:37:21.171Z,4.50
2022-12-27T00:39:48.304Z,4.60
2022-12-27T00:42:15.258Z,4.60
2022-12-27T00:44:43.202Z,4.70
2022-12-27T00:47:10.847Z,4.70
2022-12-27T00:49:37.743Z,4.70
2022-12-27T00:52:04.808Z,4.70
2022-12-27T00:54:31.603Z,4.70
2022-12-27T00:56:58.422Z,4.70
2022-12-27T00:59:25.193Z,4.70
2022-12-27T01:01:52.072Z,4.70
2022-12-27T01:04:18.903Z,4.70
2022-12-27T01:06:45.602Z,4.80
2022-12-27T01:09:12.416Z,4.80
2022-12-27T01:11:40.821Z,4.90
2022-12-27T01:14:07.554Z,4.90
2022-12-27T01:16:34.807Z,4.90
2022-12-27T01:19:01.892Z,5.00
2022-12-27T01:21:30.750Z,5.00
2022-12-27T01:23:58.345Z,4.90
2022-12-27T01:26:25.568Z,4.80
2022-12-27T01:28:53.661Z,4.80
2022-12-27T01:31:30.350Z,4.80
2022-12-27T01:33:58.970Z,4.70
2022-12-27T01:36:27.176Z,4.70
2022-12-27T01:38:54.221Z,4.60
2022-12-27T01:41:43.798Z,4.60
2022-12-27T01:44:38.794Z,4.50
2022-12-27T01:47:23.582Z,4.50
2022-12-27T01:50:08.697Z,4.40
2022-12-27T01:52:45.543Z,4.40
2022-12-27T01:55:47.615Z,4.30
2022-12-27T01:58:26.287Z,4.10
2022-12-27T02:00:53.556Z,4.00
2022-12-27T02:03:25.716Z,4.00
2022-12-27T02:05:53.003Z,3.90
2022-12-27T02:08:53.819Z,3.80
2022-12-27T02:11:43.555Z,3.80
2022-12-27T02:14:12.087Z,3.80
2022-12-27T02:16:39.002Z,3.80
2022-12-27T02:19:27.806Z,3.90
2022-12-27T02:22:00.715Z,4.00
2022-12-27T02:24:52.294Z,4.10
2022-12-27T02:27:49.295Z,4.10
2022-12-27T02:30:16.498Z,4.10
2022-12-27T02:32:56.467Z,4.10
2022-12-27T02:35:35.749Z,4.10
2022-12-27T02:38:28.529Z,4.10
2022-12-27T02:41:15.423Z,4.20
2022-12-27T02:44:00.725Z,4.30
2022-12-27T02:46:48.372Z,4.30
2022-12-27T02:49:50.383Z,4.40
2022-12-27T02:53:05.460Z,4.30
2022-12-27T02:56:03.968Z,4.20
2022-12-27T02:59:10.662Z,4.20
2022-12-27T03:02:36.417Z,4.10
2022-12-27T03:05:32.197Z,4.10
2022-12-27T03:08:11.084Z,4.00
2022-12-27T03:11:07.264Z,3.90
2022-12-27T03:14:05.546Z,3.90
2022-12-27T03:16:55.929Z,3.80
2022-12-27T03:19:52.508Z,3.70
2022-12-27T03:22:40.537Z,3.70
2022-12-27T03:25:26.492Z,3.60
2022-12-27T03:28:26.294Z,3.50
2022-12-27T03:31:18.708Z,3.50
2022-12-27T03:33:47.839Z,3.40
2022-12-27T03:36:42.490Z,3.30
2022-12-27T03:39:34.735Z,3.30
2022-12-27T03:42:24.623Z,3.30
2022-12-27T03:44:51.925Z,3.30
2022-12-27T03:47:51.018Z,3.30
2022-12-27T03:50:29.770Z,3.30
2022-12-27T03:53:03.884Z,3.20
2022-12-27T03:55:33.528Z,3.20
2022-12-27T03:58:00.687Z,3.20
2022-12-27T04:00:27.747Z,3.20
2022-12-27T04:02:54.914Z,3.30
2022-12-27T04:05:21.755Z,3.40
2022-12-27T04:08:07.067Z,3.40
2022-12-27T04:10:52.217Z,3.50
2022-12-27T04:13:37.612Z,3.60
2022-12-27T04:16:23.262Z,3.70
2022-12-27T04:19:08.635Z,3.70
2022-12-27T04:21:54.033Z,3.70
2022-12-27T04:24:39.345Z,3.60
2022-12-27T04:27:24.614Z,3.60
2022-12-27T04:30:10.095Z,3.50
2022-12-27T04:32:55.466Z,3.40
2022-12-27T04:35:22.248Z,3.40
2022-12-27T04:37:48.963Z,3.30
2022-12-27T04:40:34.288Z,3.30
2022-12-27T04:43:19.693Z,3.40
2022-12-27T04:46:05.167Z,3.40
2022-12-27T04:48:50.512Z,3.50
2022-12-27T04:51:35.899Z,3.50
2022-12-27T04:54:21.513Z,3.50
2022-12-27T04:56:48.445Z,3.60
2022-12-27T04:59:33.603Z,3.50
2022-12-27T05:02:03.356Z,3.50
2022-12-27T05:04:32.858Z,3.40
2022-12-27T05:07:20.306Z,3.30
2022-12-27T05:10:05.797Z,3.30
2022-12-27T05:12:50.883Z,3.30
2022-12-27T05:15:17.609Z,3.20
2022-12-27T05:17:45.203Z,3.20
2022-12-27T05:20:12.152Z,3.20
2022-12-27T05:22:57.366Z,3.10
2022-12-27T05:25:37.218Z,3.10
2022-12-27T05:28:07.025Z,3.10
2022-12-27T05:30:35.590Z,3.10
2022-12-27T05:33:03.112Z,3.10
2022-12-27T05:35:30.079Z,3.00
2022-12-27T05:37:57.361Z,3.00
2022-12-27T05:40:25.074Z,2.90
2022-12-27T05:42:52.201Z,2.90
2022-12-27T05:45:19.820Z,2.80
2022-12-27T05:47:46.576Z,2.70
2022-12-27T05:50:13.383Z,2.60
2022-12-27T05:52:41.256Z,2.60
2022-12-27T05:55:08.719Z,2.60
2022-12-27T05:57:35.558Z,2.50
2022-12-27T06:00:03.800Z,2.50
2022-12-27T06:02:30.654Z,2.50
2022-12-27T06:04:57.478Z,2.40
2022-12-27T06:07:24.497Z,2.40
2022-12-27T06:09:51.197Z,2.40
2022-12-27T06:12:18.070Z,2.40
2022-12-27T06:14:44.755Z,2.30
2022-12-27T06:17:11.471Z,2.30
2022-12-27T06:19:38.193Z,2.30
2022-12-27T06:22:04.889Z,2.20
2022-12-27T06:24:31.618Z,2.30
2022-12-27T06:26:58.343Z,2.30
2022-12-27T06:29:25.127Z,2.40
2022-12-27T06:31:52.166Z,2.40
2022-12-27T06:34:19.009Z,2.50
2022-12-27T06:36:50.907Z,2.50
2022-12-27T06:39:18.745Z,2.60
2022-12-27T06:41:45.747Z,2.60
2022-12-27T06:44:12.997Z,2.70
2022-12-27T06:46:39.849Z,2.70
2022-12-27T06:49:06.613Z,2.80
2022-12-27T06:51:34.445Z,2.80
2022-12-27T06:54:01.200Z,2.90
2022-12-27T06:56:27.909Z,2.90
2022-12-27T06:58:54.687Z,3.00
2022-12-27T07:01:25.200Z,3.00
2022-12-27T07:03:53.989Z,3.00
2022-12-27T07:06:21.197Z,3.10
2022-12-27T07:08:48.955Z,3.10
2022-12-27T07:11:17.331Z,3.10
2022-12-27T07:13:47.230Z,3.20
2022-12-27T07:16:17.407Z,3.20
2022-12-27T07:18:45.022Z,3.20
2022-12-27T07:21:17.223Z,3.20
2022-12-27T07:23:45.096Z,3.30
2022-12-27T07:26:15.711Z,3.30
2022-12-27T07:28:42.672Z,3.30
2022-12-27T07:31:11.126Z,3.20
2022-12-27T07:33:38.557Z,3.20
2022-12-27T07:36:09.586Z,3.10
2022-12-27T07:38:36.642Z,3.10
2022-12-27T07:41:04.272Z,3.00
2022-12-27T07:43:35.572Z,3.00
2022-12-27T07:46:12.833Z,3.00
2022-12-27T07:48:39.895Z,2.90
2022-12-27T07:51:07.891Z,2.90
2022-12-27T07:53:35.455Z,2.90
2022-12-27T07:56:13.695Z,2.90
2022-12-27T07:58:42.435Z,2.90
2022-12-27T08:01:11.439Z,3.10
2022-12-27T08:03:40.010Z,3.20
2022-12-27T08:06:08.485Z,3.30
2022-12-27T08:08:44.193Z,3.40
2022-12-27T08:11:11.298Z,3.40
2022-12-27T08:13:38.283Z,3.40
2022-12-27T08:16:05.673Z,3.50
2022-12-27T08:18:32.871Z,3.40
2022-12-27T08:20:59.638Z,3.40
2022-12-27T08:23:28.457Z,3.40
2022-12-27T08:25:55.239Z,3.40
2022-12-27T08:28:22.025Z,3.40
2022-12-27T08:30:48.842Z,3.40
2022-12-27T08:33:16.037Z,3.40
2022-12-27T08:35:54.035Z,3.30
2022-12-27T08:38:21.214Z,3.40
2022-12-27T08:40:48.041Z,3.30
2022-12-27T08:43:15.066Z,3.40
2022-12-27T08:45:42.247Z,3.40
2022-12-27T08:48:09.459Z,3.40
2022-12-27T08:50:36.261Z,3.40
2022-12-27T08:53:05.931Z,3.50
2022-12-27T08:55:34.009Z,3.50
2022-12-27T08:58:04.075Z,3.50
2022-12-27T09:00:31.966Z,3.50
2022-12-27T09:02:59.247Z,3.50
2022-12-27T09:05:27.407Z,3.60
2022-12-27T09:07:54.360Z,3.60
2022-12-27T09:10:23.359Z,3.70
2022-12-27T09:12:50.547Z,3.70
2022-12-27T09:15:17.429Z,3.80
2022-12-27T09:17:44.298Z,3.80
2022-12-27T09:20:12.592Z,3.90
2022-12-27T09:22:40.022Z,3.90
2022-12-27T09:25:07.794Z,4.00
2022-12-27T09:27:36.999Z,4.00
2022-12-27T09:30:07.997Z,4.10
2022-12-27T09:32:35.083Z,4.10
2022-12-27T09:35:02.721Z,4.10
2022-12-27T09:37:29.499Z,4.20
2022-12-27T09:39:56.967Z,4.20
2022-12-27T09:42:57.734Z,4.30
2022-12-27T09:45:38.073Z,4.50
2022-12-27T09:48:12.370Z,4.60
2022-12-27T09:50:49.949Z,4.70
2022-12-27T09:53:26.795Z,4.80
2022-12-27T09:55:55.955Z,4.80
2022-12-27T09:58:40.891Z,4.90
2022-12-27T10:01:17.684Z,4.90
2022-12-27T10:03:44.568Z,5.00
2022-12-27T10:06:26.171Z,5.10
2022-12-27T10:09:07.579Z,5.20
2022-12-27T10:12:12.859Z,5.30
2022-12-27T10:14:48.735Z,5.50
2022-12-27T10:17:35.502Z,5.60
2022-12-27T10:20:22.526Z,5.60
2022-12-27T10:23:06.468Z,5.60
2022-12-27T10:25:35.433Z,5.60
2022-12-27T10:28:14.478Z,5.60
2022-12-27T10:30:42.618Z,5.60
2022-12-27T10:33:26.546Z,5.60
2022-12-27T10:35:53.627Z,5.70
2022-12-27T10:38:21.338Z,5.80
2022-12-27T10:41:20.296Z,5.80
2022-12-27T10:43:52.634Z,5.80
2022-12-27T10:46:25.220Z,5.90
2022-12-27T10:51:50.517Z,6.20
2022-12-27T10:54:25.960Z,6.30
2022-12-27T10:56:53.847Z,6.50
2022-12-27T10:59:23.623Z,6.60
2022-12-27T11:02:18.731Z,6.70
2022-12-27T11:05:00.450Z,6.80
2022-12-27T11:07:33.578Z,6.70
2022-12-27T11:10:20.420Z,6.70
2022-12-27T11:12:57.135Z,6.70
2022-12-27T11:15:24.388Z,6.70
2022-12-27T11:17:55.161Z,6.70
2022-12-27T11:20:29.397Z,6.80
2022-12-27T11:23:03.790Z,6.90
2022-12-27T11:25:31.426Z,7.00
2022-12-27T11:28:06.434Z,7.10
2022-12-27T11:30:39.935Z,7.30
2022-12-27T11:33:55.807Z,7.40
2022-12-27T11:36:41.961Z,7.60
2022-12-27T11:39:28.918Z,7.80
2022-12-27T11:41:59.598Z,7.90
2022-12-27T11:44:31.935Z,8.00
2022-12-27T11:47:05.676Z,8.10
2022-12-27T11:49:37.765Z,8.10
2022-12-27T11:52:32.574Z,8.00
2022-12-27T11:55:24.294Z,8.10
2022-12-27T11:58:17.060Z,8.10
2022-12-27T12:01:27.799Z,8.00
2022-12-27T12:04:32.402Z,8.00
2022-12-27T12:07:29.637Z,7.90
2022-12-27T12:10:20.406Z,7.90
2022-12-27T12:13:07.174Z,8.00
2022-12-27T12:15:41.919Z,8.00
2022-12-27T12:18:36.740Z,8.00
2022-12-27T12:21:12.452Z,8.00
2022-12-27T12:24:13.622Z,7.90
2022-12-27T12:27:04.554Z,8.00
2022-12-27T12:29:47.289Z,8.00
2022-12-27T12:32:26.042Z,8.00
2022-12-27T12:35:14.401Z,8.00
2022-12-27T12:37:59.917Z,8.10
2022-12-27T12:40:45.865Z,8.20
2022-12-27T12:43:31.164Z,8.20
2022-12-27T12:46:05.205Z,8.30
2022-12-27T12:48:57.672Z,8.40
2022-12-27T12:51:30.226Z,8.50
2022-12-27T12:54:05.083Z,8.50
2022-12-27T12:56:50.435Z,8.60
2022-12-27T12:59:54.654Z,8.70
2022-12-27T13:02:36.633Z,8.80
2022-12-27T13:05:15.493Z,8.80
2022-12-27T13:07:56.541Z,8.80
2022-12-27T13:10:37.795Z,8.80
2022-12-27T13:13:18.117Z,8.80
2022-12-27T13:16:08.392Z,8.70
2022-12-27T13:18:54.047Z,8.60
2022-12-27T13:21:52.719Z,8.50
2022-12-27T13:24:30.070Z,8.50
2022-12-27T13:26:57.016Z,8.40
2022-12-27T13:29:41.576Z,8.30
2022-12-27T13:32:31.183Z,8.20
2022-12-27T13:35:07.076Z,8.00
2022-12-27T13:37:53.110Z,8.00
2022-12-27T13:40:45.828Z,7.90
2022-12-27T13:43:32.152Z,7.80
2022-12-27T13:46:20.336Z,7.80
2022-12-27T13:49:14.075Z,7.80
2022-12-27T13:51:46.355Z,7.70
2022-12-27T13:54:52.465Z,7.60
2022-12-27T13:57:44.199Z,7.60
2022-12-27T14:00:21.137Z,7.50
2022-12-27T14:02:57.894Z,7.40
2022-12-27T14:06:03.172Z,7.40
2022-12-27T14:08:53.817Z,7.30
2022-12-27T14:11:56.618Z,7.30
2022-12-27T14:14:26.661Z,7.40
2022-12-27T14:17:17.866Z,7.40
2022-12-27T14:20:06.506Z,7.40
2022-12-27T14:22:55.219Z,7.40
2022-12-27T14:25:41.010Z,7.40
2022-12-27T14:28:21.659Z,7.40
2022-12-27T14:31:16.937Z,7.50
2022-12-27T14:34:04.881Z,7.60
2022-12-27T14:36:56.643Z,7.60
2022-12-27T14:39:41.724Z,7.60
2022-12-27T14:42:14.309Z,7.70
2022-12-27T14:45:19.131Z,7.70
2022-12-27T14:47:54.763Z,7.70
2022-12-27T14:50:42.700Z,7.70
2022-12-27T14:53:38.107Z,7.70
2022-12-27T14:56:26.673Z,7.70
2022-12-27T14:58:54.601Z,7.60
2022-12-27T15:01:52.551Z,7.60
2022-12-27T15:04:49.449Z,7.50
2022-12-27T15:07:55.161Z,7.50
2022-12-27T15:10:40.969Z,7.40
2022-12-27T15:13:23.749Z,7.40
2022-12-27T15:16:14.834Z,7.40
2022-12-27T15:19:12.733Z,7.30
2022-12-27T15:21:50.907Z,7.30
2022-12-27T15:24:55.272Z,7.20
2022-12-27T15:27:39.059Z,7.20
2022-12-27T15:30:20.047Z,7.10
2022-12-27T15:33:08.002Z,7.20
2022-12-27T15:36:00.304Z,7.10
2022-12-27T15:38:53.560Z,7.10
2022-12-27T15:41:48.255Z,7.10
2022-12-27T15:44:46.412Z,7.10
2022-12-27T15:47:45.030Z,7.10
2022-12-27T15:50:35.789Z,7.10
2022-12-27T15:53:46.929Z,7.10
2022-12-27T15:56:29.709Z,7.00
2022-12-27T15:59:33.809Z,7.00
2022-12-27T16:02:23.838Z,7.00
2022-12-27T16:05:15.629Z,6.90
2022-12-27T16:07:52.183Z,6.80
2022-12-27T16:10:31.364Z,6.80
2022-12-27T16:12:58.017Z,6.80
2022-12-27T16:15:52.899Z,6.70
2022-12-27T16:18:19.610Z,6.60
2022-12-27T16:21:12.039Z,6.60
2022-12-27T16:24:05.086Z,6.60
2022-12-27T16:26:35.074Z,6.50
2022-12-27T16:29:09.379Z,6.60
2022-12-27T16:31:45.167Z,6.60
2022-12-27T16:34:30.024Z,6.60
2022-12-27T16:37:01.014Z,6.60
2022-12-27T16:39:32.993Z,6.50
2022-12-27T16:42:02.750Z,6.50
2022-12-27T16:44:48.290Z,6.40
2022-12-27T16:47:58.575Z,6.30
2022-12-27T16:50:28.043Z,6.20
2022-12-27T16:53:30.254Z,6.10
2022-12-27T16:56:16.399Z,6.10
2022-12-27T16:58:43.447Z,6.10
2022-12-27T17:01:25.294Z,6.00
2022-12-27T17:03:58.299Z,5.90
2022-12-27T17:06:33.104Z,5.90
2022-12-27T17:09:11.065Z,5.80
2022-12-27T17:11:50.010Z,5.80
2022-12-27T17:14:19.549Z,5.90
2022-12-27T17:16:49.954Z,6.00
2022-12-27T17:19:29.664Z,6.10
2022-12-27T17:22:04.850Z,6.20
2022-12-27T17:24:31.757Z,6.30
2022-12-27T17:27:07.386Z,6.40
2022-12-27T17:30:12.466Z,6.40
2022-12-27T17:32:54.391Z,6.40
2022-12-27T17:35:33.228Z,6.40
2022-12-27T17:38:12.389Z,6.40
2022-12-27T17:41:11.842Z,6.30
2022-12-27T17:44:19.870Z,6.20
2022-12-27T17:46:55.032Z,6.10
2022-12-27T17:49:30.965Z,6.10
2022-12-27T17:52:22.112Z,6.10
2022-12-27T17:55:10.951Z,6.10
2022-12-27T17:57:55.698Z,6.10
2022-12-27T18:00:33.864Z,6.10
2022-12-27T18:03:07.107Z,6.10
2022-12-27T18:05:40.502Z,6.10
2022-12-27T18:08:30.308Z,6.10
2022-12-27T18:10:58.390Z,6.10
2022-12-27T18:13:28.005Z,6.10
2022-12-27T18:15:55.308Z,6.10
2022-12-27T18:18:33.391Z,6.10
2022-12-27T18:21:04.155Z,6.10
2022-12-27T18:23:40.685Z,6.10
2022-12-27T18:26:13.423Z,6.10
2022-12-27T18:28:41.855Z,6.00
2022-12-27T18:31:11.379Z,6.00
2022-12-27T18:33:40.422Z,6.00
2022-12-27T18:36:11.869Z,6.00
2022-12-27T18:38:45.203Z,5.90
2022-12-27T18:41:20.864Z,5.80
2022-12-27T18:43:50.588Z,5.80
2022-12-27T18:46:38.384Z,5.70
2022-12-27T18:49:05.401Z,5.70
2022-12-27T18:51:34.821Z,5.60
2022-12-27T18:54:02.337Z,5.60
2022-12-27T18:56:32.872Z,5.60
2022-12-27T18:59:01.870Z,5.60
2022-12-27T19:01:47.825Z,5.50
2022-12-27T19:04:14.828Z,5.50
2022-12-27T19:06:42.501Z,5.50
2022-12-27T19:09:16.415Z,5.50
2022-12-27T19:11:54.445Z,5.50
2022-12-27T19:14:22.912Z,5.40
2022-12-27T19:16:58.465Z,5.50
2022-12-27T19:19:28.434Z,5.50
2022-12-27T19:21:56.272Z,5.50
2022-12-27T19:24:31.891Z,5.40
2022-12-27T19:27:01.216Z,5.40
2022-12-27T19:29:31.630Z,5.40
2022-12-27T19:32:07.245Z,5.50
2022-12-27T19:34:45.969Z,5.50
2022-12-27T19:37:12.909Z,5.50
2022-12-27T19:39:41.625Z,5.50
2022-12-27T19:42:14.919Z,5.50
2022-12-27T19:44:41.687Z,5.50
2022-12-27T19:47:14.920Z,5.50
2022-12-27T19:49:43.663Z,5.50
2022-12-27T19:52:26.258Z,5.60
2022-12-27T19:55:17.911Z,5.60
2022-12-27T19:57:44.835Z,5.60
2022-12-27T20:00:19.022Z,5.70
2022-12-27T20:02:46.190Z,5.70
2022-12-27T20:05:13.562Z,5.80
2022-12-27T20:07:40.870Z,5.80
2022-12-27T20:10:11.102Z,5.80
2022-12-27T20:12:37.922Z,5.90
2022-12-27T20:15:05.696Z,5.90
2022-12-27T20:17:32.783Z,5.90
2022-12-27T20:19:59.576Z,6.00
2022-12-27T20:22:26.422Z,6.00
2022-12-27T20:24:53.349Z,6.00
2022-12-27T20:27:23.780Z,6.10
2022-12-27T20:29:50.884Z,6.10
2022-12-27T20:32:18.001Z,6.10
2022-12-27T20:34:44.759Z,6.20
2022-12-27T20:37:11.442Z,6.20
2022-12-27T20:39:38.217Z,6.20
2022-12-27T20:42:05.191Z,6.20
2022-12-27T20:44:33.258Z,6.30
2022-12-27T20:47:00.146Z,6.30
2022-12-27T20:49:26.951Z,6.30
2022-12-27T20:51:53.801Z,6.20
2022-12-27T20:54:20.617Z,6.20
2022-12-27T20:56:47.543Z,6.20
2022-12-27T20:59:14.232Z,6.20
2022-12-27T21:01:41.075Z,6.30
2022-12-27T21:04:08.998Z,6.30
2022-12-27T21:06:35.758Z,6.30
2022-12-27T21:09:02.474Z,6.30
2022-12-27T21:11:31.896Z,6.30
2022-12-27T21:14:01.692Z,6.30
2022-12-27T21:16:30.800Z,6.30
2022-12-27T21:18:57.866Z,6.30
2022-12-27T21:21:28.730Z,6.30
2022-12-27T21:23:57.262Z,6.30
2022-12-27T21:26:26.703Z,6.30
2022-12-27T21:28:53.743Z,6.30
2022-12-27T21:31:20.815Z,6.40
2022-12-27T21:33:48.467Z,6.40
2022-12-27T21:36:18.085Z,6.40
2022-12-27T21:38:45.164Z,6.40
2022-12-27T21:41:15.941Z,6.40
2022-12-27T21:43:42.954Z,6.50
2022-12-27T21:46:14.092Z,6.50
2022-12-27T21:48:41.014Z,6.50
2022-12-27T21:51:18.533Z,6.50
2022-12-27T21:53:48.505Z,6.60
2022-12-27T21:56:16.951Z,6.60
2022-12-27T21:58:44.499Z,6.70
2022-12-27T22:01:17.699Z,6.80
2022-12-27T22:03:47.688Z,6.90
2022-12-27T22:06:23.498Z,7.00
2022-12-27T22:08:53.080Z,7.00
2022-12-27T22:11:21.303Z,7.00
2022-12-27T22:13:49.115Z,7.00
2022-12-27T22:16:19.130Z,7.00
2022-12-27T22:18:46.733Z,7.00
2022-12-27T22:21:17.018Z,7.00
2022-12-27T22:23:46.907Z,7.00
2022-12-27T22:26:19.465Z,7.00
2022-12-27T22:28:47.047Z,7.00
2022-12-27T22:31:18.158Z,7.00
2022-12-27T22:33:45.462Z,7.00
2022-12-27T22:36:20.841Z,7.00
2022-12-27T22:38:50.238Z,7.00
2022-12-27T22:41:19.428Z,6.90
2022-12-27T22:43:52.461Z,6.90
2022-12-27T22:46:19.886Z,6.90
2022-12-27T22:48:54.778Z,6.90
2022-12-27T22:51:24.993Z,6.80
2022-12-27T22:53:51.974Z,6.80
2022-12-27T22:56:21.564Z,6.80
2022-12-27T22:58:48.959Z,6.80
2022-12-27T23:01:21.602Z,6.80
2022-12-27T23:03:49.222Z,6.80
2022-12-27T23:06:17.038Z,6.90
2022-12-27T23:08:44.768Z,6.90
2022-12-27T23:11:14.750Z,6.90
2022-12-27T23:13:41.670Z,6.90
2022-12-27T23:16:09.250Z,6.90
2022-12-27T23:18:36.827Z,6.90
2022-12-27T23:21:20.732Z,6.80
2022-12-27T23:23:51.248Z,6.80
2022-12-27T23:26:20.451Z,6.70
2022-12-27T23:28:48.732Z,6.60
2022-12-27T23:31:15.887Z,6.60
2022-12-27T23:33:43.875Z,6.50
2022-12-27T23:36:11.818Z,6.60
2022-12-27T23:38:39.165Z,6.50
2022-12-27T23:41:07.595Z,6.50
2022-12-27T23:43:52.332Z,6.50
2022-12-27T23:46:27.526Z,6.40
2022-12-27T23:48:55.475Z,6.40
2022-12-27T23:51:22.824Z,6.40
2022-12-27T23:53:49.912Z,6.40
2022-12-27T23:56:19.491Z,6.40
2022-12-27T23:58:47.055Z,6.30
